Time;durP1;ratioP1;P1;durP2;ratioP2;P2;SDS_P1;SDS_P2;PMS_P1;PMS_P2;Temp;Humidity;BMP_temperature;BMP_pressure;BME280_temperature;BME280_humidity;BME280_pressure;Samples;Min_cycle;Max_cycle;Signal;HPM_P1;HPM_P2
2021/12/26 00:01:10;;;;;;;72.80;26.40;;;;;;;;;;6157497;23;20268;-82
2021/12/26 00:03:40;;;;;;;77.57;27.40;;;;;;;;;;6157427;23;20217;-82
2021/12/26 00:06:13;;;;;;;73.17;26.23;;;;;;;;;;6156901;23;20704;-82
2021/12/26 00:08:42;;;;;;;56.27;22.47;;;;;;;;;;6167086;23;20195;-81
2021/12/26 00:11:09;;;;;;;60.67;23.70;;;;;;;;;;6157254;23;20617;-82
2021/12/26 00:13:37;;;;;;;55.70;21.33;;;;;;;;;;6157392;23;20185;-81
2021/12/26 00:16:06;;;;;;;51.10;21.33;;;;;;;;;;6157477;23;20188;-82
2021/12/26 00:18:34;;;;;;;51.93;19.20;;;;;;;;;;6155872;23;20181;-82
2021/12/26 00:21:02;;;;;;;53.97;21.10;;;;;;;;;;6157575;23;20181;-82
2021/12/26 00:23:31;;;;;;;62.70;22.23;;;;;;;;;;6157237;23;20205;-80
2021/12/26 00:25:58;;;;;;;47.63;19.73;;;;;;;;;;6156851;23;20205;-82
2021/12/26 00:28:26;;;;;;;62.67;23.20;;;;;;;;;;6157168;23;20232;-81
2021/12/26 00:30:53;;;;;;;49.87;21.03;;;;;;;;;;6157118;23;20236;-82
2021/12/26 00:33:21;;;;;;;56.87;21.63;;;;;;;;;;6155953;23;20182;-81
2021/12/26 00:35:48;;;;;;;57.60;23.67;;;;;;;;;;6157112;23;20186;-81
2021/12/26 00:38:17;;;;;;;74.70;28.07;;;;;;;;;;6156638;23;20517;-80
2021/12/26 00:40:47;;;;;;;47.00;18.50;;;;;;;;;;6157090;23;20493;-79
2021/12/26 00:43:14;;;;;;;48.37;21.33;;;;;;;;;;6155141;23;20224;-81
2021/12/26 00:45:41;;;;;;;44.23;19.30;;;;;;;;;;6156570;23;20580;-81
2021/12/26 00:48:09;;;;;;;48.93;19.17;;;;;;;;;;6156710;23;20188;-82
2021/12/26 00:50:38;;;;;;;47.00;19.17;;;;;;;;;;6156710;23;20185;-82
2021/12/26 00:53:06;;;;;;;47.60;19.37;;;;;;;;;;6155371;23;20185;-81
2021/12/26 00:55:34;;;;;;;42.07;19.67;;;;;;;;;;6156648;23;20617;-82
2021/12/26 00:58:01;;;;;;;54.43;20.60;;;;;;;;;;6156894;23;20266;-82
2021/12/26 01:00:35;;;;;;;52.30;20.07;;;;;;;;;;6156746;23;20532;-81
2021/12/26 01:03:05;;;;;;;60.83;25.23;;;;;;;;;;6166501;23;20199;-82
2021/12/26 01:05:34;;;;;;;77.40;24.57;;;;;;;;;;6155387;23;20220;-81
2021/12/26 01:08:04;;;;;;;51.27;20.07;;;;;;;;;;6155291;23;20186;-82
2021/12/26 01:10:42;;;;;;;49.40;21.00;;;;;;;;;;6154451;23;20176;-82
2021/12/26 01:13:17;;;;;;;50.53;19.40;;;;;;;;;;6164442;23;20169;-82
2021/12/26 01:15:48;;;;;;;43.80;19.30;;;;;;;;;;6164320;23;20519;-82
2021/12/26 01:18:23;;;;;;;52.80;20.67;;;;;;;;;;6131966;23;20174;-82
2021/12/26 01:21:05;;;;;;;52.73;19.57;;;;;;;;;;6154528;23;20240;-81
2021/12/26 01:23:33;;;;;;;49.30;18.40;;;;;;;;;;6132452;23;20285;-81
2021/12/26 01:26:01;;;;;;;51.53;19.53;;;;;;;;;;6155522;23;20209;-81
2021/12/26 01:28:32;;;;;;;64.30;23.67;;;;;;;;;;6163566;23;20169;-81
2021/12/26 01:31:03;;;;;;;103.67;30.90;;;;;;;;;;6154078;23;20169;-81
2021/12/26 01:33:34;;;;;;;112.77;33.77;;;;;;;;;;6130661;23;20500;-82
2021/12/26 01:36:19;;;;;;;49.27;20.57;;;;;;;;;;6154671;23;20169;-81
2021/12/26 01:39:02;;;;;;;54.53;20.63;;;;;;;;;;6156143;23;20177;-81
2021/12/26 01:41:40;;;;;;;47.43;19.97;;;;;;;;;;6131961;23;20169;-81
2021/12/26 01:44:11;;;;;;;50.00;20.50;;;;;;;;;;6156056;23;20231;-81
2021/12/26 01:46:49;;;;;;;50.70;20.70;;;;;;;;;;6156001;23;20184;-81
2021/12/26 01:49:29;;;;;;;51.27;20.30;;;;;;;;;;6165773;23;20551;-80
2021/12/26 01:52:03;;;;;;;45.00;17.97;;;;;;;;;;6154608;23;20239;-79
2021/12/26 01:54:43;;;;;;;48.33;19.37;;;;;;;;;;6164117;23;20170;-81
2021/12/26 01:57:12;;;;;;;62.00;24.97;;;;;;;;;;6132920;23;20173;-81
2021/12/26 01:59:41;;;;;;;72.47;26.97;;;;;;;;;;6154391;23;20188;-81
2021/12/26 02:02:35;;;;;;;61.70;21.83;;;;;;;;;;6132628;23;20185;-81
2021/12/26 02:05:03;;;;;;;50.27;20.23;;;;;;;;;;6154526;23;20185;-81
2021/12/26 02:07:30;;;;;;;73.80;24.27;;;;;;;;;;6154213;23;20208;-81
2021/12/26 02:09:58;;;;;;;54.50;19.50;;;;;;;;;;6130304;23;20186;-81
2021/12/26 02:12:26;;;;;;;60.10;24.37;;;;;;;;;;6154433;23;20189;-81
2021/12/26 02:14:54;;;;;;;46.17;19.87;;;;;;;;;;6154454;23;20516;-81
2021/12/26 02:17:30;;;;;;;50.67;19.50;;;;;;;;;;6154526;23;20170;-81
2021/12/26 02:20:14;;;;;;;50.30;20.30;;;;;;;;;;6154587;23;20252;-79
2021/12/26 02:22:46;;;;;;;46.57;20.17;;;;;;;;;;6165161;23;20236;-80
2021/12/26 02:27:54;;;;;;;44.30;16.60;;;;;;;;;;6154761;23;20196;-81
2021/12/26 02:30:23;;;;;;;54.00;20.93;;;;;;;;;;6154210;23;20189;-80
2021/12/26 02:32:53;;;;;;;46.17;16.70;;;;;;;;;;6155507;23;20526;-82
2021/12/26 02:35:21;;;;;;;79.87;27.60;;;;;;;;;;6154237;23;20181;-81
2021/12/26 02:37:50;;;;;;;73.20;26.10;;;;;;;;;;6130010;23;20237;-80
2021/12/26 02:40:18;;;;;;;88.63;29.87;;;;;;;;;;6154437;23;20274;-81
2021/12/26 02:42:46;;;;;;;42.97;20.17;;;;;;;;;;6154081;23;20173;-81
2021/12/26 02:45:14;;;;;;;51.97;20.73;;;;;;;;;;6154189;23;20181;-81
2021/12/26 02:47:45;;;;;;;46.33;20.40;;;;;;;;;;6154271;23;20188;-82
2021/12/26 02:50:31;;;;;;;48.33;20.47;;;;;;;;;;6155810;23;20181;-81
2021/12/26 02:53:04;;;;;;;54.83;21.53;;;;;;;;;;6154464;23;20252;-81
2021/12/26 02:55:32;;;;;;;38.07;13.40;;;;;;;;;;6139440;23;20554;-78
2021/12/26 02:58:06;;;;;;;46.63;19.90;;;;;;;;;;6155439;23;20475;-82
2021/12/26 03:00:38;;;;;;;45.50;19.67;;;;;;;;;;6153901;23;20501;-82
2021/12/26 03:03:07;;;;;;;52.77;21.67;;;;;;;;;;6154209;23;20205;-81
2021/12/26 03:05:38;;;;;;;55.97;22.30;;;;;;;;;;6153827;23;20185;-81
2021/12/26 03:08:06;;;;;;;57.63;23.33;;;;;;;;;;6154153;23;20177;-82
2021/12/26 03:10:34;;;;;;;48.43;20.60;;;;;;;;;;6153813;23;20308;-79
2021/12/26 03:13:07;;;;;;;51.03;21.60;;;;;;;;;;6153916;23;20184;-81
2021/12/26 03:15:36;;;;;;;49.00;21.63;;;;;;;;;;6163563;23;20169;-80
2021/12/26 03:18:05;;;;;;;60.67;22.17;;;;;;;;;;6154218;23;20182;-81
2021/12/26 03:20:38;;;;;;;52.93;21.37;;;;;;;;;;6153400;23;20178;-81
2021/12/26 03:23:06;;;;;;;49.20;20.70;;;;;;;;;;6153788;23;20235;-79
2021/12/26 03:25:34;;;;;;;45.63;18.33;;;;;;;;;;6153907;23;20267;-82
2021/12/26 03:28:03;;;;;;;54.73;21.43;;;;;;;;;;6155583;23;20170;-80
2021/12/26 03:30:31;;;;;;;85.47;31.63;;;;;;;;;;6153664;23;20181;-81
2021/12/26 03:33:01;;;;;;;59.20;24.07;;;;;;;;;;6153908;23;20265;-82
2021/12/26 03:35:30;;;;;;;62.50;21.67;;;;;;;;;;6129928;23;20169;-82
2021/12/26 03:38:02;;;;;;;62.67;23.70;;;;;;;;;;6154004;23;20188;-81
2021/12/26 03:40:44;;;;;;;67.80;26.53;;;;;;;;;;6165800;23;20170;-82
2021/12/26 03:43:11;;;;;;;58.37;24.00;;;;;;;;;;6157051;23;20287;-82
2021/12/26 03:45:43;;;;;;;62.60;25.70;;;;;;;;;;6155648;23;20181;-81
2021/12/26 03:48:12;;;;;;;78.17;27.97;;;;;;;;;;6155775;23;20236;-81
2021/12/26 03:50:41;;;;;;;65.97;27.30;;;;;;;;;;6156984;23;20182;-81
2021/12/26 03:53:09;;;;;;;51.20;22.73;;;;;;;;;;6155323;23;20617;-81
2021/12/26 03:55:38;;;;;;;54.83;23.20;;;;;;;;;;6155709;23;20211;-82
2021/12/26 03:58:06;;;;;;;50.27;22.67;;;;;;;;;;6155367;23;20232;-82
2021/12/26 04:00:34;;;;;;;55.53;22.37;;;;;;;;;;6157031;23;20571;-82
2021/12/26 04:03:02;;;;;;;52.80;22.17;;;;;;;;;;6155195;23;20181;-82
2021/12/26 04:05:36;;;;;;;57.67;21.40;;;;;;;;;;6155472;23;20196;-82
2021/12/26 04:08:04;;;;;;;50.07;20.57;;;;;;;;;;6155478;23;20178;-82
2021/12/26 04:10:32;;;;;;;204.20;51.03;;;;;;;;;;6156755;23;20182;-82
2021/12/26 04:12:59;;;;;;;66.43;29.57;;;;;;;;;;6155464;23;20181;-82
2021/12/26 04:15:29;;;;;;;68.00;26.57;;;;;;;;;;6155286;23;20659;-81
2021/12/26 04:17:57;;;;;;;59.90;25.47;;;;;;;;;;6155796;23;20248;-81
2021/12/26 04:20:26;;;;;;;57.23;22.63;;;;;;;;;;6155340;23;20633;-80
2021/12/26 04:22:54;;;;;;;62.03;23.40;;;;;;;;;;6155585;23;20235;-81
2021/12/26 04:25:22;;;;;;;53.70;22.23;;;;;;;;;;6155955;23;20644;-81
2021/12/26 04:27:50;;;;;;;51.23;22.00;;;;;;;;;;6156787;23;20241;-82
2021/12/26 04:30:18;;;;;;;72.67;25.73;;;;;;;;;;6155541;23;20639;-81
2021/12/26 04:32:47;;;;;;;63.70;29.17;;;;;;;;;;6155076;23;20181;-81
2021/12/26 04:35:15;;;;;;;49.37;22.30;;;;;;;;;;6155449;23;20185;-80
2021/12/26 04:37:43;;;;;;;57.57;21.33;;;;;;;;;;6156868;23;20245;-81
2021/12/26 04:40:13;;;;;;;56.27;22.80;;;;;;;;;;6156426;23;20181;-81
2021/12/26 04:42:55;;;;;;;52.63;21.87;;;;;;;;;;6156952;23;20200;-80
2021/12/26 04:45:38;;;;;;;63.70;21.77;;;;;;;;;;6164882;23;20165;-81
2021/12/26 04:48:21;;;;;;;90.37;26.63;;;;;;;;;;6156130;23;20634;-81
2021/12/26 04:50:48;;;;;;;108.60;30.27;;;;;;;;;;6156320;23;20189;-82
2021/12/26 04:53:15;;;;;;;73.10;33.07;;;;;;;;;;6156363;23;20188;-81
2021/12/26 04:55:43;;;;;;;54.73;23.50;;;;;;;;;;6154962;23;20617;-82
2021/12/26 04:58:10;;;;;;;61.23;24.90;;;;;;;;;;6154515;23;20182;-82
2021/12/26 05:00:37;;;;;;;55.97;23.20;;;;;;;;;;6156557;23;20252;-82
2021/12/26 05:03:07;;;;;;;49.10;21.87;;;;;;;;;;6156345;23;20188;-79
2021/12/26 05:05:36;;;;;;;48.20;21.60;;;;;;;;;;6156448;23;20205;-82
2021/12/26 05:08:04;;;;;;;58.47;23.53;;;;;;;;;;6156388;23;20181;-82
2021/12/26 05:10:31;;;;;;;56.37;23.53;;;;;;;;;;6156337;23;20181;-80
2021/12/26 05:13:00;;;;;;;52.40;22.17;;;;;;;;;;6156271;23;20201;-81
2021/12/26 05:15:29;;;;;;;81.23;27.93;;;;;;;;;;6154618;23;20514;-81
2021/12/26 05:17:56;;;;;;;65.20;27.50;;;;;;;;;;6156281;23;20181;-82
2021/12/26 05:20:27;;;;;;;52.00;24.13;;;;;;;;;;6131155;23;20181;-79
2021/12/26 05:22:55;;;;;;;78.87;28.47;;;;;;;;;;6156482;23;20189;-82
2021/12/26 05:25:24;;;;;;;69.83;26.70;;;;;;;;;;6154210;23;20237;-81
2021/12/26 05:27:52;;;;;;;68.83;24.80;;;;;;;;;;6156197;23;20170;-82
2021/12/26 05:30:23;;;;;;;65.93;24.47;;;;;;;;;;6154360;23;20181;-82
2021/12/26 05:33:11;;;;;;;50.73;21.17;;;;;;;;;;6156067;23;20176;-83
2021/12/26 05:35:38;;;;;;;52.80;23.40;;;;;;;;;;6154365;23;20572;-82
2021/12/26 05:38:07;;;;;;;66.20;26.80;;;;;;;;;;6154497;23;20249;-81
2021/12/26 05:40:38;;;;;;;47.60;21.13;;;;;;;;;;6131338;23;20176;-82
2021/12/26 05:43:05;;;;;;;54.70;23.00;;;;;;;;;;6154687;23;20188;-81
2021/12/26 05:45:32;;;;;;;49.50;22.93;;;;;;;;;;6130088;23;20205;-82
2021/12/26 05:48:11;;;;;;;54.80;24.40;;;;;;;;;;6154549;23;20522;-83
2021/12/26 05:50:39;;;;;;;58.03;23.43;;;;;;;;;;6154395;23;20640;-80
2021/12/26 05:53:17;;;;;;;69.63;26.17;;;;;;;;;;6154695;23;20196;-76
2021/12/26 05:55:44;;;;;;;59.80;25.03;;;;;;;;;;6154438;23;20216;-77
2021/12/26 05:58:12;;;;;;;71.83;27.27;;;;;;;;;;6130141;23;20557;-77
2021/12/26 06:00:39;;;;;;;141.30;57.47;;;;;;;;;;6154055;23;20185;-77
2021/12/26 06:03:07;;;;;;;73.73;32.03;;;;;;;;;;6129240;23;20617;-78
2021/12/26 06:05:34;;;;;;;79.07;26.40;;;;;;;;;;6153492;23;20216;-77
2021/12/26 06:08:02;;;;;;;84.17;30.93;;;;;;;;;;6154007;23;20181;-77
2021/12/26 06:10:32;;;;;;;102.97;36.83;;;;;;;;;;6129920;23;20181;-77
2021/12/26 06:12:59;;;;;;;86.00;32.77;;;;;;;;;;6129687;23;20185;-77
2021/12/26 06:15:27;;;;;;;81.13;30.20;;;;;;;;;;6152683;23;20673;-77
2021/12/26 06:17:55;;;;;;;110.40;37.57;;;;;;;;;;6129706;23;20181;-75
2021/12/26 06:20:36;;;;;;;82.33;32.63;;;;;;;;;;6164485;23;20169;-81
2021/12/26 06:23:26;;;;;;;78.53;33.43;;;;;;;;;;6100085;23;20188;-74
2021/12/26 06:26:08;;;;;;;74.87;31.77;;;;;;;;;;6157485;23;20665;-74
2021/12/26 06:28:40;;;;;;;67.00;29.83;;;;;;;;;;6162059;23;20620;-79
2021/12/26 06:31:21;;;;;;;91.83;37.03;;;;;;;;;;6151185;23;20189;-73
2021/12/26 06:34:02;;;;;;;82.67;32.93;;;;;;;;;;6161585;23;20223;-74
2021/12/26 06:36:44;;;;;;;71.27;30.70;;;;;;;;;;6163015;23;20169;-80
2021/12/26 06:39:25;;;;;;;71.87;30.60;;;;;;;;;;6162052;23;20173;-77
2021/12/26 06:42:07;;;;;;;83.33;31.03;;;;;;;;;;6161995;23;20231;-69
2021/12/26 06:44:49;;;;;;;70.03;30.30;;;;;;;;;;6149950;23;20680;-73
2021/12/26 06:47:28;;;;;;;72.97;29.20;;;;;;;;;;6150891;23;20619;-74
2021/12/26 06:49:55;;;;;;;71.03;28.47;;;;;;;;;;6152354;23;20264;-72
2021/12/26 06:52:22;;;;;;;67.10;27.97;;;;;;;;;;6150699;23;20209;-76
2021/12/26 06:54:50;;;;;;;70.53;29.27;;;;;;;;;;6150039;23;20213;-74
2021/12/26 06:57:17;;;;;;;72.17;30.60;;;;;;;;;;6151261;23;20185;-74
2021/12/26 06:59:44;;;;;;;81.90;31.93;;;;;;;;;;6151660;23;20546;-70
2021/12/26 07:02:14;;;;;;;66.23;29.63;;;;;;;;;;6151696;23;20257;-73
2021/12/26 07:04:53;;;;;;;70.43;30.27;;;;;;;;;;6152290;23;20680;-80
2021/12/26 07:07:24;;;;;;;66.97;27.73;;;;;;;;;;6126643;23;20228;-74
2021/12/26 07:09:54;;;;;;;77.73;31.60;;;;;;;;;;6149665;23;20265;-72
2021/12/26 07:12:25;;;;;;;70.97;27.93;;;;;;;;;;6105213;23;20245;-71
2021/12/26 07:15:13;;;;;;;67.50;27.93;;;;;;;;;;6152225;23;20256;-75
2021/12/26 07:17:48;;;;;;;61.87;27.73;;;;;;;;;;6162793;23;20173;-81
2021/12/26 07:20:16;;;;;;;61.40;27.43;;;;;;;;;;6152655;23;20181;-72
2021/12/26 07:23:09;;;;;;;97.47;33.47;;;;;;;;;;6150720;23;20221;-73
2021/12/26 07:25:40;;;;;;;73.17;32.93;;;;;;;;;;6159375;23;20532;-71
2021/12/26 07:28:08;;;;;;;114.03;36.83;;;;;;;;;;6162564;23;20170;-76
2021/12/26 07:30:51;;;;;;;88.10;31.33;;;;;;;;;;6165146;23;20173;-77
2021/12/26 07:33:20;;;;;;;69.57;26.03;;;;;;;;;;6153670;23;20178;-76
2021/12/26 07:35:52;;;;;;;75.23;29.87;;;;;;;;;;6163217;23;20272;-72
2021/12/26 07:38:51;;;;;;;65.30;27.77;;;;;;;;;;6141521;23;20636;-72
2021/12/26 07:41:27;;;;;;;69.83;27.60;;;;;;;;;;6162536;23;20173;-72
2021/12/26 07:43:55;;;;;;;70.53;27.77;;;;;;;;;;6152268;23;20652;-71
2021/12/26 07:46:36;;;;;;;64.77;27.73;;;;;;;;;;6163951;23;20173;-72
2021/12/26 07:49:12;;;;;;;59.57;27.80;;;;;;;;;;6152408;23;20249;-72
2021/12/26 07:51:54;;;;;;;62.93;25.43;;;;;;;;;;6154154;23;20169;-71
2021/12/26 07:54:37;;;;;;;67.63;26.63;;;;;;;;;;6154350;23;20260;-74
2021/12/26 07:57:18;;;;;;;67.27;27.17;;;;;;;;;;6130851;23;20781;-73
2021/12/26 07:59:58;;;;;;;62.23;25.87;;;;;;;;;;6130745;23;20672;-72
2021/12/26 08:02:40;;;;;;;62.70;26.70;;;;;;;;;;6154498;23;20169;-70
2021/12/26 08:05:22;;;;;;;63.43;26.83;;;;;;;;;;6164241;23;20195;-71
2021/12/26 08:08:02;;;;;;;93.87;37.30;;;;;;;;;;6131546;23;20197;-72
2021/12/26 08:10:30;;;;;;;72.43;30.77;;;;;;;;;;6152997;23;20185;-71
2021/12/26 08:12:57;;;;;;;76.67;33.13;;;;;;;;;;6152587;23;20608;-71
2021/12/26 08:15:25;;;;;;;62.17;28.33;;;;;;;;;;6128174;23;20263;-72
2021/12/26 08:17:53;;;;;;;88.07;36.07;;;;;;;;;;6153691;23;20181;-75
2021/12/26 08:20:22;;;;;;;67.37;30.00;;;;;;;;;;6155191;23;20177;-73
2021/12/26 08:22:49;;;;;;;76.47;29.83;;;;;;;;;;6155317;23;20185;-73
2021/12/26 08:25:17;;;;;;;80.27;30.70;;;;;;;;;;6155239;23;20186;-74
2021/12/26 08:27:44;;;;;;;84.17;30.63;;;;;;;;;;6120685;23;20186;-74
2021/12/26 08:30:13;;;;;;;68.10;31.23;;;;;;;;;;6128671;23;20178;-75
2021/12/26 08:32:42;;;;;;;80.70;31.77;;;;;;;;;;6152868;23;20617;-74
2021/12/26 08:35:09;;;;;;;73.20;30.27;;;;;;;;;;6152458;23;20208;-73
2021/12/26 08:37:38;;;;;;;70.50;32.20;;;;;;;;;;6154436;23;20300;-72
2021/12/26 08:40:08;;;;;;;170.03;77.00;;;;;;;;;;6152295;23;20849;-75
2021/12/26 08:42:38;;;;;;;71.90;32.60;;;;;;;;;;6137640;23;20640;-73
2021/12/26 08:45:07;;;;;;;79.43;31.70;;;;;;;;;;6154611;23;20174;-74
2021/12/26 08:47:34;;;;;;;64.63;27.93;;;;;;;;;;6156091;23;20181;-74
2021/12/26 08:50:08;;;;;;;68.33;29.27;;;;;;;;;;6156099;23;20588;-74
2021/12/26 08:52:38;;;;;;;74.67;30.27;;;;;;;;;;6153905;23;20585;-75
2021/12/26 08:55:07;;;;;;;62.33;25.57;;;;;;;;;;6163021;23;20219;-75
2021/12/26 08:57:35;;;;;;;64.87;29.50;;;;;;;;;;6155041;23;20187;-73
2021/12/26 09:00:05;;;;;;;65.33;27.50;;;;;;;;;;6156579;23;20573;-73
2021/12/26 09:02:37;;;;;;;132.30;48.43;;;;;;;;;;6164972;23;20166;-73
2021/12/26 09:05:06;;;;;;;79.40;31.13;;;;;;;;;;6155036;23;20760;-75
2021/12/26 09:07:37;;;;;;;67.37;27.80;;;;;;;;;;6166236;23;20166;-73
2021/12/26 09:10:10;;;;;;;60.20;27.03;;;;;;;;;;6165724;23;20161;-72
2021/12/26 09:12:38;;;;;;;66.67;28.30;;;;;;;;;;6165984;23;20657;-73
2021/12/26 09:15:07;;;;;;;66.27;28.47;;;;;;;;;;6155896;23;20224;-74
2021/12/26 09:17:35;;;;;;;65.77;28.20;;;;;;;;;;6156653;23;20625;-73
2021/12/26 09:20:04;;;;;;;62.40;27.67;;;;;;;;;;6156131;23;20220;-73
2021/12/26 09:22:31;;;;;;;68.67;28.00;;;;;;;;;;6156306;23;20260;-73
2021/12/26 09:25:02;;;;;;;64.67;29.03;;;;;;;;;;6156878;23;20256;-72
2021/12/26 09:27:30;;;;;;;70.90;29.30;;;;;;;;;;6155536;23;20267;-74
2021/12/26 09:29:57;;;;;;;84.20;32.20;;;;;;;;;;6156079;23;20565;-74
2021/12/26 09:32:24;;;;;;;63.43;29.50;;;;;;;;;;6157240;23;20185;-75
2021/12/26 09:34:52;;;;;;;55.40;26.67;;;;;;;;;;6153811;23;20197;-74
2021/12/26 09:37:19;;;;;;;81.57;33.40;;;;;;;;;;6155220;23;20181;-74
2021/12/26 09:39:46;;;;;;;68.23;27.43;;;;;;;;;;6156054;23;20555;-74
2021/12/26 09:42:14;;;;;;;61.90;27.17;;;;;;;;;;6130172;23;20252;-75
2021/12/26 09:44:41;;;;;;;64.30;28.60;;;;;;;;;;6155777;23;20837;-74
2021/12/26 09:47:10;;;;;;;58.37;26.30;;;;;;;;;;6154657;23;20502;-74
2021/12/26 09:49:37;;;;;;;62.23;25.73;;;;;;;;;;6153701;23;20192;-74
2021/12/26 09:52:06;;;;;;;57.57;25.73;;;;;;;;;;6153916;23;20948;-74
2021/12/26 09:54:34;;;;;;;65.53;26.67;;;;;;;;;;6153741;23;20184;-74
2021/12/26 09:57:06;;;;;;;75.20;33.93;;;;;;;;;;6152265;23;20192;-73
2021/12/26 09:59:33;;;;;;;58.53;25.10;;;;;;;;;;6163837;23;20177;-72
2021/12/26 10:02:11;;;;;;;54.73;26.00;;;;;;;;;;6155296;23;20185;-72
2021/12/26 10:04:51;;;;;;;61.03;24.50;;;;;;;;;;6165612;23;20166;-71
2021/12/26 10:07:26;;;;;;;59.80;26.00;;;;;;;;;;6165124;23;20165;-74
2021/12/26 10:09:55;;;;;;;59.67;25.73;;;;;;;;;;6165189;23;20169;-73
2021/12/26 10:12:22;;;;;;;64.77;26.40;;;;;;;;;;6154424;23;20185;-73
2021/12/26 10:14:53;;;;;;;57.63;24.33;;;;;;;;;;6156158;23;20551;-73
2021/12/26 10:17:26;;;;;;;54.87;23.80;;;;;;;;;;6164374;23;20173;-72
2021/12/26 10:20:09;;;;;;;55.40;27.47;;;;;;;;;;6164846;23;20228;-74
2021/12/26 10:22:37;;;;;;;67.30;28.60;;;;;;;;;;6163379;23;20200;-75
2021/12/26 10:25:10;;;;;;;59.37;26.50;;;;;;;;;;6155931;23;20256;-73
2021/12/26 10:27:40;;;;;;;50.03;23.63;;;;;;;;;;6156400;23;20282;-74
2021/12/26 10:30:14;;;;;;;52.37;25.37;;;;;;;;;;6163883;23;20176;-72
2021/12/26 10:32:41;;;;;;;55.63;26.00;;;;;;;;;;6164273;23;20219;-73
2021/12/26 10:35:14;;;;;;;60.70;24.57;;;;;;;;;;6158256;23;20209;-75
2021/12/26 10:37:50;;;;;;;58.33;24.70;;;;;;;;;;6163346;23;20196;-72
2021/12/26 10:40:25;;;;;;;50.90;23.97;;;;;;;;;;6165069;23;20199;-70
2021/12/26 10:42:58;;;;;;;53.17;24.10;;;;;;;;;;6155505;23;20166;-76
2021/12/26 10:45:29;;;;;;;54.53;25.17;;;;;;;;;;6156053;23;20232;-74
2021/12/26 10:48:00;;;;;;;75.70;30.80;;;;;;;;;;6166543;23;20200;-75
2021/12/26 10:50:29;;;;;;;45.53;21.77;;;;;;;;;;6157364;23;20239;-76
2021/12/26 10:52:59;;;;;;;54.60;24.60;;;;;;;;;;6157317;23;20189;-74
2021/12/26 10:55:33;;;;;;;60.37;25.57;;;;;;;;;;6156740;23;20204;-72
2021/12/26 10:58:04;;;;;;;52.83;25.13;;;;;;;;;;6167055;23;20401;-72
2021/12/26 11:00:39;;;;;;;63.63;25.47;;;;;;;;;;6166188;23;20508;-72
2021/12/26 11:03:09;;;;;;;55.80;25.77;;;;;;;;;;6165148;23;20178;-71
2021/12/26 11:05:38;;;;;;;55.40;25.53;;;;;;;;;;6165741;23;20193;-73
2021/12/26 11:08:16;;;;;;;58.27;25.67;;;;;;;;;;6163186;23;20176;-70
2021/12/26 11:10:46;;;;;;;60.60;26.17;;;;;;;;;;6155338;23;20177;-71
2021/12/26 11:13:23;;;;;;;58.80;26.10;;;;;;;;;;6165503;23;20173;-70
2021/12/26 11:16:01;;;;;;;55.33;23.37;;;;;;;;;;6155793;23;20200;-71
2021/12/26 11:18:30;;;;;;;55.57;25.07;;;;;;;;;;6165693;23;20190;-70
2021/12/26 11:20:59;;;;;;;58.67;24.33;;;;;;;;;;6157825;23;20576;-71
2021/12/26 11:23:31;;;;;;;59.67;24.80;;;;;;;;;;6157549;23;20736;-70
2021/12/26 11:26:03;;;;;;;54.50;23.40;;;;;;;;;;6162576;23;20209;-72
2021/12/26 11:28:33;;;;;;;56.77;25.90;;;;;;;;;;6156622;23;20181;-76
2021/12/26 11:31:05;;;;;;;60.17;24.13;;;;;;;;;;6165826;23;20173;-74
2021/12/26 11:33:36;;;;;;;60.53;24.13;;;;;;;;;;6165818;23;20613;-73
2021/12/26 11:36:10;;;;;;;63.43;26.27;;;;;;;;;;6166190;23;20196;-74
2021/12/26 11:38:41;;;;;;;52.77;23.87;;;;;;;;;;6166796;23;20166;-75
2021/12/26 11:42:07;;;;;;;53.87;24.47;;;;;;;;;;6115523;23;20204;-74
2021/12/26 11:45:01;;;;;;;53.53;25.73;;;;;;;;;;6154042;23;20182;-74
2021/12/26 11:47:59;;;;;;;52.00;23.10;;;;;;;;;;6145544;23;20174;-75
2021/12/26 11:51:02;;;;;;;56.40;25.10;;;;;;;;;;6158737;23;20181;-74
2021/12/26 11:54:20;;;;;;;47.97;20.70;;;;;;;;;;6116772;23;20181;-74
2021/12/26 11:57:22;;;;;;;44.80;20.57;;;;;;;;;;6166079;23;20197;-76
2021/12/26 11:59:59;;;;;;;48.03;22.30;;;;;;;;;;6157746;23;20237;-74
2021/12/26 12:02:43;;;;;;;56.17;24.20;;;;;;;;;;6158302;23;20182;-74
2021/12/26 12:05:14;;;;;;;49.37;22.80;;;;;;;;;;6157156;23;20174;-74
2021/12/26 12:07:52;;;;;;;55.10;25.13;;;;;;;;;;6154579;23;20173;-74
2021/12/26 12:10:34;;;;;;;52.37;24.17;;;;;;;;;;6164447;23;20605;-74
2021/12/26 12:13:04;;;;;;;53.73;23.57;;;;;;;;;;6156210;23;20660;-73
2021/12/26 12:15:48;;;;;;;57.63;26.33;;;;;;;;;;6153896;23;20213;-72
2021/12/26 12:18:35;;;;;;;55.97;24.27;;;;;;;;;;6164566;23;20618;-78
2021/12/26 12:21:16;;;;;;;54.13;25.53;;;;;;;;;;6138437;23;20640;-76
2021/12/26 12:23:58;;;;;;;48.60;24.20;;;;;;;;;;6164716;23;20174;-76
2021/12/26 12:26:40;;;;;;;56.10;23.47;;;;;;;;;;6159881;23;20216;-76
2021/12/26 12:29:10;;;;;;;50.03;24.97;;;;;;;;;;6162973;23;20177;-76
2021/12/26 12:31:38;;;;;;;60.13;28.13;;;;;;;;;;6164569;23;20278;-75
2021/12/26 12:34:13;;;;;;;54.43;24.50;;;;;;;;;;6154912;23;20185;-76
2021/12/26 12:36:44;;;;;;;53.17;26.10;;;;;;;;;;6163738;23;20225;-73
2021/12/26 12:39:18;;;;;;;54.30;25.50;;;;;;;;;;6164316;23;20169;-76
2021/12/26 12:41:54;;;;;;;51.07;23.33;;;;;;;;;;6163573;23;20177;-74
2021/12/26 12:44:36;;;;;;;57.63;25.43;;;;;;;;;;6165847;23;20173;-76
2021/12/26 12:47:14;;;;;;;52.67;24.83;;;;;;;;;;6164146;23;20170;-75
2021/12/26 12:49:50;;;;;;;51.40;23.97;;;;;;;;;;6165530;23;20177;-76
2021/12/26 12:52:41;;;;;;;50.77;23.60;;;;;;;;;;6151653;23;20214;-74
2021/12/26 12:55:10;;;;;;;60.60;26.80;;;;;;;;;;6154546;23;20205;-73
2021/12/26 12:57:42;;;;;;;54.50;26.30;;;;;;;;;;6155636;23;20236;-71
2021/12/26 13:00:23;;;;;;;49.67;24.70;;;;;;;;;;6165745;23;20554;-76
2021/12/26 13:02:52;;;;;;;54.57;26.70;;;;;;;;;;6154959;23;20174;-76
2021/12/26 13:05:31;;;;;;;57.30;26.23;;;;;;;;;;6152912;23;20185;-77
2021/12/26 13:08:10;;;;;;;60.93;29.43;;;;;;;;;;6166353;23;20221;-75
2021/12/26 13:10:39;;;;;;;56.27;26.13;;;;;;;;;;6156332;23;20659;-75
2021/12/26 13:13:12;;;;;;;50.53;24.87;;;;;;;;;;6157220;23;20565;-74
2021/12/26 13:15:54;;;;;;;61.10;26.03;;;;;;;;;;6166459;23;20507;-75
2021/12/26 13:18:24;;;;;;;49.03;23.50;;;;;;;;;;6166468;23;20170;-74
2021/12/26 13:20:56;;;;;;;60.07;26.93;;;;;;;;;;6164813;23;20398;-77
2021/12/26 13:23:25;;;;;;;50.97;24.87;;;;;;;;;;6164372;23;20177;-74
2021/12/26 13:25:52;;;;;;;54.33;24.80;;;;;;;;;;6155938;23;20216;-74
2021/12/26 13:28:23;;;;;;;58.67;26.90;;;;;;;;;;6166179;23;20169;-74
2021/12/26 13:30:59;;;;;;;62.83;27.10;;;;;;;;;;6165775;23;20170;-73
2021/12/26 13:33:26;;;;;;;57.03;27.20;;;;;;;;;;6166462;23;20232;-72
2021/12/26 13:35:54;;;;;;;54.47;26.43;;;;;;;;;;6155308;23;20264;-72
2021/12/26 13:38:22;;;;;;;61.33;26.47;;;;;;;;;;6156155;23;20196;-73
2021/12/26 13:40:54;;;;;;;64.27;28.93;;;;;;;;;;6156114;23;20182;-76
2021/12/26 13:43:35;;;;;;;67.53;28.77;;;;;;;;;;6165869;23;20166;-71
2021/12/26 13:46:04;;;;;;;57.97;25.93;;;;;;;;;;6166332;23;20177;-72
2021/12/26 13:48:41;;;;;;;52.03;25.10;;;;;;;;;;6155980;23;20521;-79
2021/12/26 13:51:24;;;;;;;51.77;23.93;;;;;;;;;;6165579;23;20169;-72
2021/12/26 13:54:05;;;;;;;45.17;21.20;;;;;;;;;;6165953;23;20547;-75
2021/12/26 13:56:48;;;;;;;44.77;21.57;;;;;;;;;;6165870;23;20197;-72
2021/12/26 13:59:41;;;;;;;48.03;22.43;;;;;;;;;;6165642;23;20291;-72
2021/12/26 14:02:14;;;;;;;47.50;21.90;;;;;;;;;;6152013;23;20189;-71
2021/12/26 14:04:46;;;;;;;45.70;19.80;;;;;;;;;;6162475;23;20173;-72
2021/12/26 14:07:19;;;;;;;56.10;24.70;;;;;;;;;;6165331;23;20240;-74
2021/12/26 14:09:48;;;;;;;52.70;24.57;;;;;;;;;;6165068;23;20176;-72
2021/12/26 14:12:35;;;;;;;56.10;22.93;;;;;;;;;;6153893;23;20212;-71
2021/12/26 14:15:31;;;;;;;53.97;22.70;;;;;;;;;;6165176;23;20169;-74
2021/12/26 14:18:07;;;;;;;42.00;18.40;;;;;;;;;;6154052;23;20542;-72
2021/12/26 14:20:49;;;;;;;42.93;18.17;;;;;;;;;;6154422;23;20495;-70
2021/12/26 14:23:20;;;;;;;39.63;18.77;;;;;;;;;;6165099;23;20172;-70
2021/12/26 14:25:51;;;;;;;44.70;19.43;;;;;;;;;;6155328;23;20280;-69
2021/12/26 14:28:19;;;;;;;40.03;19.03;;;;;;;;;;6155605;23;20189;-69
2021/12/26 14:30:54;;;;;;;46.43;19.60;;;;;;;;;;6139540;23;20173;-74
2021/12/26 14:33:27;;;;;;;38.23;18.17;;;;;;;;;;6165150;23;20233;-75
2021/12/26 14:36:06;;;;;;;44.87;18.87;;;;;;;;;;6139974;23;20193;-75
2021/12/26 14:38:33;;;;;;;49.83;23.97;;;;;;;;;;6165262;23;20257;-72
2021/12/26 14:41:07;;;;;;;42.17;19.63;;;;;;;;;;6155717;23;20264;-70
2021/12/26 14:43:41;;;;;;;43.90;17.90;;;;;;;;;;6155677;23;20173;-74
2021/12/26 14:46:09;;;;;;;47.07;22.33;;;;;;;;;;6105693;23;20197;-76
2021/12/26 14:48:43;;;;;;;46.80;21.93;;;;;;;;;;6106139;23;20252;-76
2021/12/26 14:51:17;;;;;;;57.27;25.00;;;;;;;;;;6114532;23;20165;-75